Time;durP1;ratioP1;P1;durP2;ratioP2;P2;SDS_P1;SDS_P2;PMS_P1;PMS_P2;Temp;Humidity;BMP_temperature;BMP_pressure;BME280_temperature;BME280_humidity;BME280_pressure;Samples;Min_cycle;Max_cycle;Signal;HPM_P1;HPM_P2
2022/03/10 00:00:41;;;;;;;;;68.00;54.33;;;;;8.22;62.91;101428.47;5028669;28;45599;-78
2022/03/10 00:03:06;;;;;;;;;66.00;54.00;;;;;8.24;63.03;101437.34;5029110;28;45556;-78
2022/03/10 00:05:32;;;;;;;;;63.00;51.50;;;;;8.23;62.87;101435.53;5028257;28;45335;-78
2022/03/10 00:07:57;;;;;;;;;62.00;51.25;;;;;8.05;62.98;101410.94;5029194;28;45616;-78
2022/03/10 00:10:22;;;;;;;;;61.00;50.00;;;;;8.20;63.00;101443.22;5027790;28;54067;-79
2022/03/10 00:12:49;;;;;;;;;59.33;49.00;;;;;8.17;62.81;101447.38;5028223;28;45458;-79
2022/03/10 00:15:16;;;;;;;;;58.00;46.25;;;;;8.05;62.85;101429.28;5027446;28;45324;-78
2022/03/10 00:17:41;;;;;;;;;58.50;48.00;;;;;8.19;63.38;101451.91;5044221;28;45613;-78
2022/03/10 00:20:07;;;;;;;;;56.75;46.50;;;;;8.15;63.08;101443.78;5028851;28;45552;-78
2022/03/10 00:22:46;;;;;;;;;57.75;47.50;;;;;8.10;63.28;101440.91;5028044;28;45414;-78
2022/03/10 00:25:13;;;;;;;;;54.50;45.00;;;;;8.04;63.09;101431.81;5028215;28;45529;-78
2022/03/10 00:27:38;;;;;;;;;59.50;47.25;;;;;8.11;62.91;101455.78;5028480;28;45496;-78
2022/03/10 00:30:05;;;;;;;;;59.25;49.00;;;;;8.11;63.33;101454.91;5028957;28;46114;-78
2022/03/10 00:32:30;;;;;;;;;57.00;46.75;;;;;8.02;63.22;101439.56;5028043;28;45772;-78
2022/03/10 00:34:56;;;;;;;;;55.67;45.67;;;;;7.90;63.30;101423.19;5039960;28;45515;-78
2022/03/10 00:37:21;;;;;;;;;54.75;45.00;;;;;8.06;63.17;101458.97;5048541;28;45650;-79
2022/03/10 00:39:46;;;;;;;;;55.50;46.50;;;;;7.87;63.25;101433.47;5048249;28;45982;-78
2022/03/10 00:42:12;;;;;;;;;55.75;45.25;;;;;7.92;63.13;101447.72;5048327;28;45426;-78
2022/03/10 00:44:37;;;;;;;;;57.67;47.33;;;;;7.86;63.23;101440.44;5047973;28;47035;-78
2022/03/10 00:47:02;;;;;;;;;56.00;44.67;;;;;7.80;63.31;101434.84;5048701;28;45557;-78
2022/03/10 00:49:28;;;;;;;;;55.50;45.25;;;;;7.78;63.26;101432.94;5047052;28;46620;-78
2022/03/10 00:51:53;;;;;;;;;55.00;45.33;;;;;7.90;63.78;101463.34;5052146;28;45745;-78
2022/03/10 00:54:18;;;;;;;;;57.00;47.33;;;;;7.86;63.66;101452.63;5051596;28;45510;-79
2022/03/10 00:56:44;;;;;;;;;55.00;46.25;;;;;7.83;63.26;101452.44;5051831;28;45601;-78
2022/03/10 00:59:09;;;;;;;;;51.50;42.75;;;;;7.85;63.51;101463.91;5051510;28;47977;-78
2022/03/10 01:01:34;;;;;;;;;57.00;46.00;;;;;7.79;63.26;101459.22;5051665;28;45394;-79
2022/03/10 01:04:00;;;;;;;;;51.00;43.67;;;;;7.82;63.42;101464.63;5052161;28;45423;-78
2022/03/10 01:06:25;;;;;;;;;60.33;48.00;;;;;7.67;63.28;101451.56;5051070;28;45718;-79
2022/03/10 01:08:50;;;;;;;;;48.00;42.33;;;;;7.73;63.60;101456.25;5033537;28;47112;-78
2022/03/10 01:11:15;;;;;;;;;48.33;41.67;;;;;7.73;63.38;101449.31;5050998;28;45474;-79
2022/03/10 01:13:41;;;;;;;;;50.67;43.33;;;;;7.71;63.71;101460.50;5032991;28;45488;-79
2022/03/10 01:16:06;;;;;;;;;53.50;44.00;;;;;7.71;63.63;101463.09;5051441;28;45487;-78
2022/03/10 01:18:32;;;;;;;;;56.50;46.00;;;;;7.71;63.53;101460.50;5050917;28;53792;-79
2022/03/10 01:20:57;;;;;;;;;54.50;46.25;;;;;7.68;63.91;101463.81;5051185;28;45449;-78
2022/03/10 01:23:22;;;;;;;;;62.33;49.00;;;;;7.66;63.65;101460.22;5051265;28;45710;-78
2022/03/10 01:25:48;;;;;;;;;59.00;48.00;;;;;7.59;63.91;101450.25;5051103;28;45821;-79
2022/03/10 01:28:13;;;;;;;;;53.00;43.67;;;;;7.68;63.28;101469.06;5050710;28;50415;-78
2022/03/10 01:30:38;;;;;;;;;55.00;46.67;;;;;7.55;63.44;101450.88;5051002;28;45584;-78
2022/03/10 01:33:04;;;;;;;;;56.33;46.00;;;;;7.64;63.63;101460.97;5051725;28;45486;-78
2022/03/10 01:35:29;;;;;;;;;54.67;43.33;;;;;7.65;63.77;101463.66;5035378;28;45544;-78
2022/03/10 01:37:54;;;;;;;;;59.00;46.67;;;;;7.64;63.72;101466.19;5031429;28;45331;-78
2022/03/10 01:40:20;;;;;;;;;51.25;42.50;;;;;7.63;63.80;101467.88;5030404;28;45414;-79
2022/03/10 01:42:47;;;;;;;;;59.00;47.25;;;;;7.62;63.95;101466.09;5030523;28;45650;-78
2022/03/10 01:45:13;;;;;;;;;51.00;42.50;;;;;7.48;64.02;101446.06;5031134;28;45539;-78
2022/03/10 01:47:39;;;;;;;;;55.75;46.25;;;;;7.42;63.70;101436.16;5030875;28;46280;-79
2022/03/10 01:50:07;;;;;;;;;58.00;46.00;;;;;7.39;63.83;101428.16;5030988;28;45710;-78
2022/03/10 01:52:32;;;;;;;;;51.75;43.25;;;;;7.52;63.93;101449.78;5031317;28;45807;-78
2022/03/10 01:54:58;;;;;;;;;52.00;42.75;;;;;7.53;63.74;101460.31;5030857;28;45494;-78
2022/03/10 01:57:25;;;;;;;;;52.75;42.00;;;;;7.24;63.66;101415.09;5030092;28;45452;-79
2022/03/10 01:59:51;;;;;;;;;53.50;41.75;;;;;7.28;64.01;101423.09;5030741;28;45665;-78
2022/03/10 02:02:16;;;;;;;;;46.75;38.50;;;;;7.46;64.19;101458.19;5030319;28;45430;-78
2022/03/10 02:04:42;;;;;;;;;52.67;42.33;;;;;7.27;64.00;101434.38;5030198;28;45831;-78
2022/03/10 02:10:16;;;;;;;;;45.50;39.75;;;;;7.34;63.89;101440.06;5030725;28;45868;-78
2022/03/10 02:12:41;;;;;;;;;45.00;39.00;;;;;7.30;64.04;101437.19;5030127;28;45485;-78
2022/03/10 02:17:56;;;;;;;;;50.50;42.00;;;;;7.37;64.04;101445.44;5030733;28;45912;-78
2022/03/10 02:20:22;;;;;;;;;50.25;41.50;;;;;7.34;63.81;101454.81;5029667;28;45777;-79
2022/03/10 02:22:49;;;;;;;;;52.00;43.00;;;;;7.10;64.13;101420.31;5030966;28;45739;-78
2022/03/10 02:25:15;;;;;;;;;48.00;40.00;;;;;7.27;64.04;101450.06;5029904;28;45507;-78
2022/03/10 02:27:41;;;;;;;;;52.75;44.50;;;;;7.12;63.89;101426.53;5029820;28;46203;-78
2022/03/10 02:30:07;;;;;;;;;51.00;42.25;;;;;7.20;64.15;101449.72;5030414;28;45615;-78
2022/03/10 02:32:33;;;;;;;;;51.50;41.75;;;;;7.18;64.01;101448.69;5030352;28;45505;-78
2022/03/10 02:34:59;;;;;;;;;55.50;45.75;;;;;7.09;64.13;101440.31;5041033;28;45433;-78
2022/03/10 02:37:24;;;;;;;;;48.25;40.00;;;;;6.97;64.07;101426.50;5049701;28;46142;-78
2022/03/10 02:39:50;;;;;;;;;48.25;41.00;;;;;7.11;64.29;101443.94;5031453;28;45369;-79
2022/03/10 02:42:15;;;;;;;;;48.75;41.75;;;;;7.04;64.28;101433.00;5049552;28;45851;-78
2022/03/10 02:44:43;;;;;;;;;53.00;41.00;;;;;7.10;64.59;101455.19;5050562;28;45544;-78
2022/03/10 02:47:09;;;;;;;;;44.75;38.25;;;;;6.96;64.67;101424.72;5050129;28;45467;-78
2022/03/10 02:49:34;;;;;;;;;46.00;39.25;;;;;7.04;64.65;101438.22;5049574;28;45487;-78
2022/03/10 02:52:02;;;;;;;;;52.75;43.00;;;;;7.07;64.66;101456.72;5050371;28;45344;-78
2022/03/10 02:54:27;;;;;;;;;48.25;41.00;;;;;6.99;64.72;101445.78;5049338;28;45426;-78
2022/03/10 02:56:53;;;;;;;;;52.00;43.33;;;;;6.89;64.24;101438.22;5049244;28;47645;-78
2022/03/10 02:59:18;;;;;;;;;53.67;44.00;;;;;6.96;64.56;101450.84;5049737;28;45848;-78
2022/03/10 03:01:43;;;;;;;;;54.00;44.00;;;;;6.97;64.59;101468.31;5032015;28;45498;-78
2022/03/10 03:04:09;;;;;;;;;54.33;43.67;;;;;6.68;64.67;101417.81;5049433;28;48721;-79
2022/03/10 03:06:34;;;;;;;;;56.33;46.00;;;;;6.91;64.47;101460.13;5049722;28;49892;-78
2022/03/10 03:08:59;;;;;;;;;58.67;44.33;;;;;6.86;64.69;101459.84;5049694;28;45381;-78
2022/03/10 03:11:25;;;;;;;;;48.25;39.50;;;;;6.70;64.80;101434.50;5030759;28;45483;-78
2022/03/10 03:13:51;;;;;;;;;44.67;39.33;;;;;6.69;64.92;101429.16;5049281;28;45293;-78
2022/03/10 03:16:16;;;;;;;;;53.75;43.50;;;;;6.78;64.94;101444.50;5049207;28;45970;-78
2022/03/10 03:18:42;;;;;;;;;52.67;43.00;;;;;6.81;64.99;101468.22;5049486;28;45340;-78
2022/03/10 03:21:07;;;;;;;;;52.67;43.67;;;;;6.67;65.22;101449.97;5049631;28;45537;-78
2022/03/10 03:23:35;;;;;;;;;50.00;40.75;;;;;6.62;65.01;101440.06;5049487;28;45490;-79
2022/03/10 03:26:04;;;;;;;;;56.25;44.50;;;;;6.63;65.37;101450.59;5049102;28;46376;-78
2022/03/10 03:28:29;;;;;;;;;54.00;45.50;;;;;6.61;65.13;101452.22;5049329;28;45764;-78
2022/03/10 03:30:54;;;;;;;;;51.00;43.00;;;;;6.73;65.00;101473.84;5050037;28;45556;-78
2022/03/10 03:33:20;;;;;;;;;53.00;44.00;;;;;6.47;64.99;101437.41;5048946;28;45803;-78
2022/03/10 03:35:45;;;;;;;;;59.33;48.33;;;;;6.45;65.08;101439.00;5031345;28;45506;-78
2022/03/10 03:38:11;;;;;;;;;55.50;46.75;;;;;6.46;65.04;101439.13;5029396;28;45328;-78
2022/03/10 03:40:37;;;;;;;;;57.50;47.50;;;;;6.59;64.77;101471.19;5028460;28;45427;-78
2022/03/10 03:43:02;;;;;;;;;56.25;44.25;;;;;6.65;64.98;101479.41;5028912;28;45530;-79
2022/03/10 03:45:28;;;;;;;;;48.67;42.67;;;;;6.49;65.05;101456.66;5028951;28;46299;-78
2022/03/10 03:47:54;;;;;;;;;57.00;46.25;;;;;6.53;65.15;101470.81;5028978;28;45431;-78
2022/03/10 03:50:20;;;;;;;;;51.75;44.25;;;;;6.61;65.39;101485.28;5029033;28;45687;-78
2022/03/10 03:52:46;;;;;;;;;54.25;44.25;;;;;6.44;65.18;101455.47;5029249;28;45471;-78
2022/03/10 03:55:12;;;;;;;;;54.00;43.00;;;;;6.53;65.56;101471.72;5027940;28;46210;-78
2022/03/10 03:57:38;;;;;;;;;51.50;44.25;;;;;6.38;65.25;101452.50;5028865;28;45687;-78
2022/03/10 04:00:06;;;;;;;;;53.75;45.75;;;;;6.25;65.45;101434.25;5029481;28;45529;-78
2022/03/10 04:02:31;;;;;;;;;52.50;44.25;;;;;6.52;65.28;101488.22;5028765;28;45509;-77
2022/03/10 04:04:56;;;;;;;;;50.33;43.67;;;;;6.49;65.58;101488.00;5029353;28;45447;-78
2022/03/10 04:07:22;;;;;;;;;52.00;43.33;;;;;6.35;65.28;101461.03;5028563;28;45630;-78
2022/03/10 04:09:48;;;;;;;;;47.00;40.00;;;;;6.38;65.43;101473.38;5026897;28;45407;-78
2022/03/10 04:12:13;;;;;;;;;46.50;40.25;;;;;6.44;65.58;101492.94;5028923;28;45573;-79
2022/03/10 04:14:39;;;;;;;;;46.00;40.75;;;;;6.44;65.42;101479.88;5028815;28;46368;-78
2022/03/10 04:17:04;;;;;;;;;46.25;39.00;;;;;6.29;65.67;101463.25;5028625;28;45541;-78
2022/03/10 04:19:29;;;;;;;;;44.75;39.00;;;;;6.39;65.43;101489.13;5029247;28;46221;-78
2022/03/10 04:21:55;;;;;;;;;54.33;42.67;;;;;6.10;65.76;101449.84;5029567;28;45536;-78
2022/03/10 04:24:20;;;;;;;;;47.67;39.00;;;;;6.35;65.50;101500.19;5029594;28;46116;-78
2022/03/10 04:26:45;;;;;;;;;48.00;40.33;;;;;6.23;65.60;101477.63;5032010;28;45560;-78
2022/03/10 04:29:12;;;;;;;;;49.67;41.67;;;;;6.32;65.63;101493.88;5032743;28;45741;-78
2022/03/10 04:31:37;;;;;;;;;44.00;40.00;;;;;6.24;65.74;101489.88;5032285;28;46129;-79
2022/03/10 04:34:04;;;;;;;;;45.75;40.75;;;;;6.17;65.94;101473.81;5035603;28;45342;-78
2022/03/10 04:36:29;;;;;;;;;53.25;41.50;;;;;6.26;65.71;101490.91;5052133;28;45815;-78
2022/03/10 04:38:55;;;;;;;;;49.50;40.75;;;;;6.27;65.75;101501.41;5052598;28;45498;-78
2022/03/10 04:41:20;;;;;;;;;45.75;40.00;;;;;6.13;65.52;101483.97;5051341;28;45696;-78
2022/03/10 04:43:46;;;;;;;;;42.50;38.50;;;;;6.23;65.76;101509.84;5052357;28;45380;-78
2022/03/10 04:46:11;;;;;;;;;44.00;40.00;;;;;6.09;65.74;101481.97;5052029;28;45445;-78
2022/03/10 04:48:36;;;;;;;;;42.25;37.75;;;;;6.13;65.91;101492.69;5051487;28;45408;-78
2022/03/10 04:51:02;;;;;;;;;47.33;40.00;;;;;6.19;66.05;101498.31;5051900;28;46941;-78
2022/03/10 04:53:27;;;;;;;;;52.50;40.75;;;;;6.15;66.02;101492.78;5051792;28;45568;-78
2022/03/10 04:55:53;;;;;;;;;51.00;42.33;;;;;6.09;65.82;101481.97;5051230;28;45536;-78
2022/03/10 04:58:18;;;;;;;;;46.50;40.25;;;;;6.15;65.71;101493.69;5051733;28;45526;-78
2022/03/10 05:00:44;;;;;;;;;53.67;43.00;;;;;6.10;65.57;101491.59;5052291;28;45463;-78
2022/03/10 05:03:09;;;;;;;;;46.25;40.50;;;;;6.11;65.99;101501.25;5051271;28;45500;-78
2022/03/10 05:05:35;;;;;;;;;47.25;41.00;;;;;5.97;65.93;101478.59;5051638;28;45593;-78
2022/03/10 05:08:00;;;;;;;;;46.00;39.75;;;;;6.07;65.70;101489.72;5052135;28;45568;-78
2022/03/10 05:10:26;;;;;;;;;50.00;41.67;;;;;6.08;66.12;101498.44;5050514;28;45519;-78
2022/03/10 05:12:56;;;;;;;;;45.00;39.50;;;;;6.07;66.08;101496.63;5051721;28;45504;-78
2022/03/10 05:15:26;;;;;;;;;47.00;40.50;;;;;5.73;66.19;101441.34;5054516;28;45776;-78
2022/03/10 05:17:52;;;;;;;;;46.50;40.50;;;;;5.98;66.14;101491.72;5052247;28;45590;-78
2022/03/10 05:20:19;;;;;;;;;45.75;39.50;;;;;5.95;66.13;101479.34;5053593;28;45283;-78
2022/03/10 05:22:50;;;;;;;;;49.50;40.50;;;;;5.79;66.06;101454.78;5054791;28;45559;-78
2022/03/10 05:25:17;;;;;;;;;42.75;40.00;;;;;6.02;66.43;101491.13;5065067;28;45121;-78
2022/03/10 05:27:43;;;;;;;;;44.75;39.75;;;;;5.86;66.38;101470.00;5067735;28;45035;-77
2022/03/10 05:30:10;;;;;;;;;46.00;40.25;;;;;6.01;66.09;101485.78;5063512;28;45343;-78
2022/03/10 05:32:36;;;;;;;;;52.50;40.50;;;;;5.93;65.92;101483.59;5065364;28;46166;-78
2022/03/10 05:35:03;;;;;;;;;46.75;41.25;;;;;5.98;66.17;101485.59;5055639;28;45367;-77
2022/03/10 05:37:30;;;;;;;;;52.50;43.75;;;;;5.84;66.02;101474.22;5049713;28;45092;-78
2022/03/10 05:39:55;;;;;;;;;46.25;40.00;;;;;5.96;66.16;101495.94;5049431;28;45397;-78
2022/03/10 05:42:20;;;;;;;;;42.75;39.00;;;;;5.82;66.45;101470.63;5044639;28;46424;-78
2022/03/10 05:44:47;;;;;;;;;49.00;40.00;;;;;5.69;66.38;101454.16;5036962;28;45532;-78
2022/03/10 05:47:12;;;;;;;;;54.75;42.25;;;;;5.34;66.41;101388.38;5036721;28;45309;-78
2022/03/10 05:49:38;;;;;;;;;38.75;35.50;;;;;5.89;66.34;101494.59;5037866;28;45354;-78
2022/03/10 05:52:04;;;;;;;;;52.25;41.00;;;;;5.60;66.27;101443.13;5034675;28;46273;-78
2022/03/10 05:54:29;;;;;;;;;46.75;40.00;;;;;5.89;66.33;101506.72;5033058;28;45788;-78
2022/03/10 05:56:54;;;;;;;;;51.33;42.00;;;;;5.83;66.37;101495.91;5035433;28;45466;-78
2022/03/10 05:59:20;;;;;;;;;44.00;39.67;;;;;5.83;66.28;101495.91;5034552;28;45634;-78
2022/03/10 06:01:49;;;;;;;;;51.67;40.33;;;;;5.74;66.06;101482.25;5031621;28;46117;-78
2022/03/10 06:04:14;;;;;;;;;43.75;39.75;;;;;5.86;66.57;101502.22;5035383;28;45792;-77
2022/03/10 06:06:40;;;;;;;;;52.50;42.50;;;;;5.86;66.38;101502.22;5032169;28;45537;-78
2022/03/10 06:09:05;;;;;;;;;49.67;41.67;;;;;5.85;66.36;101497.78;5034576;28;45599;-78
2022/03/10 06:11:31;;;;;;;;;47.67;40.00;;;;;5.78;66.69;101484.28;5033693;28;45312;-78
2022/03/10 06:13:56;;;;;;;;;41.50;39.75;;;;;5.72;66.44;101479.56;5036094;28;45446;-78
2022/03/10 06:16:22;;;;;;;;;47.75;41.00;;;;;5.80;66.62;101495.69;5029955;28;45466;-78
2022/03/10 06:18:47;;;;;;;;;52.25;43.50;;;;;5.87;66.23;101504.03;5030436;28;45355;-77
2022/03/10 06:21:12;;;;;;;;;48.75;41.00;;;;;5.86;66.49;101499.63;5030357;28;46653;-77
2022/03/10 06:23:38;;;;;;;;;44.25;39.50;;;;;5.76;66.28;101483.25;5029550;28;45434;-77
2022/03/10 06:26:03;;;;;;;;;55.00;43.50;;;;;5.66;66.38;101463.47;5030723;28;45535;-77
2022/03/10 06:28:30;;;;;;;;;46.25;41.50;;;;;5.82;66.09;101488.88;5030320;28;45564;-77
2022/03/10 06:30:55;;;;;;;;;45.50;39.75;;;;;5.77;66.12;101485.06;5030117;28;45494;-77
2022/03/10 06:33:21;;;;;;;;;46.00;40.50;;;;;5.60;65.88;101463.09;5029951;28;45471;-77
2022/03/10 06:35:46;;;;;;;;;51.00;40.50;;;;;5.74;66.55;101482.25;5047826;28;45371;-77
2022/03/10 06:38:11;;;;;;;;;54.00;45.00;;;;;5.80;66.37;101511.34;5049929;28;46087;-79
2022/03/10 06:40:37;;;;;;;;;49.75;40.25;;;;;5.81;66.42;101507.94;5049499;28;45376;-78
2022/03/10 06:43:03;;;;;;;;;45.33;41.00;;;;;5.80;66.85;101493.09;5050394;28;45321;-79
2022/03/10 06:45:29;;;;;;;;;48.75;41.75;;;;;5.93;66.71;101514.00;5049618;28;45414;-79
2022/03/10 06:47:54;;;;;;;;;49.00;42.00;;;;;5.90;66.71;101508.53;5051191;28;45455;-78
2022/03/10 06:50:20;;;;;;;;;51.25;41.75;;;;;5.99;66.95;101519.59;5058021;28;46250;-79
2022/03/10 06:52:45;;;;;;;;;53.50;45.00;;;;;6.02;66.97;101517.22;5057995;28;45541;-79
2022/03/10 06:55:11;;;;;;;;;47.75;42.50;;;;;5.98;67.14;101501.25;5066716;28;45132;-80
2022/03/10 06:57:36;;;;;;;;;46.75;40.75;;;;;5.78;66.94;101466.91;5066452;28;45314;-78
2022/03/10 07:00:02;;;;;;;;;52.25;44.25;;;;;5.92;66.91;101480.91;5063960;28;45761;-79
2022/03/10 07:02:27;;;;;;;;;50.00;41.75;;;;;6.17;66.72;101523.41;5067098;28;45515;-79
2022/03/10 07:04:53;;;;;;;;;56.00;43.33;;;;;6.22;66.96;101522.81;5062263;28;45428;-78
2022/03/10 07:07:18;;;;;;;;;56.25;45.00;;;;;5.67;66.90;101419.28;5054512;28;45484;-79
2022/03/10 07:09:43;;;;;;;;;56.00;43.33;;;;;6.31;66.98;101518.19;5061531;28;45514;-78
2022/03/10 07:12:09;;;;;;;;;60.00;46.67;;;;;6.27;66.81;101510.97;5059558;28;45174;-79
2022/03/10 07:14:35;;;;;;;;;48.50;41.25;;;;;6.38;66.33;101522.97;5059325;28;45429;-79
2022/03/10 07:17:00;;;;;;;;;48.67;40.33;;;;;6.44;66.46;101524.25;5060679;28;45554;-79
2022/03/10 07:19:25;;;;;;;;;44.67;38.67;;;;;6.01;66.59;101439.75;5066485;28;45558;-79
2022/03/10 07:21:51;;;;;;;;;49.00;41.25;;;;;5.85;66.79;101406.50;5068869;28;44990;-79
2022/03/10 07:24:16;;;;;;;;;47.25;42.00;;;;;6.69;66.70;101539.78;5064174;28;44929;-79
2022/03/10 07:26:43;;;;;;;;;52.50;43.50;;;;;6.16;66.14;101440.72;5065951;28;45818;-79
2022/03/10 07:29:08;;;;;;;;;53.75;43.75;;;;;6.79;66.68;101528.19;5067639;28;45347;-79
2022/03/10 07:31:34;;;;;;;;;54.25;44.75;;;;;6.94;66.36;101538.69;5063535;28;44955;-78
2022/03/10 07:33:59;;;;;;;;;56.50;46.50;;;;;6.89;66.31;101521.81;5057964;28;45385;-79
2022/03/10 07:36:25;;;;;;;;;47.00;40.50;;;;;7.08;66.41;101535.22;5048198;28;45118;-79
2022/03/10 07:38:51;;;;;;;;;45.50;41.50;;;;;7.16;66.39;101543.53;5038854;28;46102;-79
2022/03/10 07:41:16;;;;;;;;;45.25;39.50;;;;;7.23;66.07;101541.38;5040260;28;45419;-79
2022/03/10 07:43:41;;;;;;;;;46.50;41.00;;;;;7.03;65.77;101491.31;5039116;28;45480;-79
2022/03/10 07:46:07;;;;;;;;;48.00;39.75;;;;;7.28;65.92;101522.44;5035569;28;45821;-80
2022/03/10 07:48:33;;;;;;;;;46.50;40.50;;;;;7.36;65.81;101521.22;5036402;28;46558;-80
2022/03/10 07:50:59;;;;;;;;;40.50;35.75;;;;;7.56;65.73;101538.09;5040602;28;45029;-79
2022/03/10 07:53:24;;;;;;;;;46.50;40.50;;;;;7.54;65.77;101521.38;5043919;28;45403;-79
2022/03/10 07:55:54;;;;;;;;;39.25;36.50;;;;;7.73;65.33;101539.97;5047906;28;45051;-79
2022/03/10 07:58:22;;;;;;;;;44.00;38.75;;;;;7.73;64.71;101530.44;5047956;28;45618;-79
2022/03/10 08:00:48;;;;;;;;;43.75;38.75;;;;;7.89;65.23;101547.03;5051331;28;45211;-78
2022/03/10 08:03:13;;;;;;;;;46.25;39.25;;;;;7.83;65.27;101520.47;5051631;28;45270;-80
2022/03/10 08:05:38;;;;;;;;;46.67;39.33;;;;;7.86;65.05;101516.31;5051473;28;45258;-79
2022/03/10 08:08:04;;;;;;;;;47.67;39.67;;;;;8.02;64.87;101523.34;5051245;28;45721;-80
2022/03/10 08:10:30;;;;;;;;;41.75;38.75;;;;;8.16;64.73;101538.13;5050758;28;45005;-80
2022/03/10 08:12:55;;;;;;;;;39.00;36.25;;;;;8.23;64.97;101545.53;5044182;28;45446;-79
2022/03/10 08:15:21;;;;;;;;;41.75;37.00;;;;;8.26;64.31;101529.97;5031367;28;45991;-79
2022/03/10 08:17:47;;;;;;;;;45.00;36.75;;;;;8.19;64.00;101501.66;5032578;28;45965;-79
2022/03/10 08:20:13;;;;;;;;;42.75;38.50;;;;;8.39;64.21;101526.34;5032153;28;45277;-79
2022/03/10 08:22:39;;;;;;;;;41.75;37.50;;;;;8.40;64.35;101528.16;5032107;28;45468;-79
2022/03/10 08:25:05;;;;;;;;;47.25;40.00;;;;;8.56;64.22;101543.00;5031917;28;45474;-79
2022/03/10 08:27:30;;;;;;;;;45.75;38.25;;;;;8.54;63.93;101526.31;5032018;28;46274;-80
2022/03/10 08:29:55;;;;;;;;;42.00;38.50;;;;;8.69;64.16;101541.97;5032569;28;45462;-79
2022/03/10 08:32:25;;;;;;;;;42.50;37.75;;;;;8.67;64.09;101523.56;5032072;28;45359;-79
2022/03/10 08:34:50;;;;;;;;;38.75;36.00;;;;;8.73;64.27;101515.13;5042506;28;45579;-79
2022/03/10 08:37:18;;;;;;;;;36.50;32.75;;;;;8.90;63.49;101526.50;5051259;28;45824;-79
2022/03/10 08:39:43;;;;;;;;;35.00;31.75;;;;;8.98;63.30;101525.19;5051497;28;45751;-79
2022/03/10 08:42:09;;;;;;;;;36.25;34.75;;;;;9.05;63.26;101524.69;5051649;28;45478;-78
2022/03/10 08:44:34;;;;;;;;;41.50;36.50;;;;;8.94;63.20;101484.81;5051362;28;45517;-79
2022/03/10 08:46:59;;;;;;;;;39.00;36.00;;;;;9.21;63.49;101518.53;5052312;28;46218;-79
2022/03/10 08:49:25;;;;;;;;;35.75;31.75;;;;;9.13;62.74;101489.28;5051827;28;45565;-79
2022/03/10 08:51:50;;;;;;;;;32.33;31.33;;;;;9.31;62.79;101507.72;5051871;28;45722;-79
2022/03/10 08:54:16;;;;;;;;;37.00;35.25;;;;;9.27;62.74;101485.66;5051705;28;45587;-79
2022/03/10 08:56:41;;;;;;;;;36.75;34.25;;;;;9.48;62.71;101513.81;5051367;28;45402;-79
2022/03/10 08:59:07;;;;;;;;;38.00;32.33;;;;;9.55;62.50;101510.69;5051337;28;45730;-79
2022/03/10 09:01:32;;;;;;;;;40.00;34.75;;;;;9.64;62.47;101511.16;5051575;28;45624;-79
2022/03/10 09:03:57;;;;;;;;;41.33;35.33;;;;;9.60;62.09;101482.94;5052114;28;45809;-79
2022/03/10 09:06:23;;;;;;;;;34.25;32.00;;;;;9.80;61.80;101511.13;5051098;28;46134;-79
2022/03/10 09:08:48;;;;;;;;;37.75;32.50;;;;;9.69;61.56;101467.66;5050053;28;45446;-79
2022/03/10 09:11:14;;;;;;;;;35.25;32.25;;;;;9.94;61.51;101506.53;5050236;28;45806;-79
2022/03/10 09:13:43;;;;;;;;;40.50;35.25;;;;;9.94;61.43;101488.13;5051371;28;45618;-79
2022/03/10 09:16:08;;;;;;;;;37.00;32.75;;;;;9.89;61.46;101473.00;5051153;28;45494;-79
2022/03/10 09:18:34;;;;;;;;;29.00;27.00;;;;;9.99;61.33;101481.38;5051338;28;45533;-79
2022/03/10 09:21:00;;;;;;;;;37.50;35.25;;;;;10.17;61.10;101504.13;5051542;28;45512;-79
2022/03/10 09:23:25;;;;;;;;;33.50;33.00;;;;;10.11;61.44;101480.19;5051243;28;45573;-79
2022/03/10 09:25:50;;;;;;;;;36.50;33.75;;;;;10.16;61.51;101482.22;5051448;28;47055;-79
2022/03/10 09:28:16;;;;;;;;;36.50;34.00;;;;;10.16;61.19;101471.72;5050937;28;45843;-79
2022/03/10 09:30:42;;;;;;;;;38.67;33.67;;;;;10.36;61.40;101495.44;5051593;28;45460;-79
2022/03/10 09:33:07;;;;;;;;;28.25;27.75;;;;;10.40;61.19;101482.53;5051506;28;45356;-79
2022/03/10 09:35:32;;;;;;;;;33.50;29.50;;;;;10.41;60.72;101473.81;5034387;28;45442;-79
2022/03/10 09:38:00;;;;;;;;;37.33;32.00;;;;;10.45;61.09;101459.97;5031463;28;45339;-79
2022/03/10 09:40:26;;;;;;;;;38.75;32.75;;;;;10.58;60.95;101467.59;5030455;28;45354;-79
2022/03/10 09:42:51;;;;;;;;;30.50;29.25;;;;;10.76;60.83;101496.47;5030899;28;45462;-79
2022/03/10 09:45:18;;;;;;;;;29.50;27.25;;;;;10.75;60.63;101470.09;5030609;28;49382;-79
2022/03/10 09:47:45;;;;;;;;;38.75;30.00;;;;;10.85;60.38;101472.31;5031078;28;45891;-79
2022/03/10 09:50:15;;;;;;;;;35.00;32.00;;;;;10.81;60.17;101444.97;5029113;28;45537;-79
2022/03/10 09:52:42;;;;;;;;;33.25;28.00;;;;;11.02;60.18;101459.91;5030865;28;45446;-79
2022/03/10 09:55:09;;;;;;;;;31.00;28.50;;;;;11.22;60.25;101479.19;5030128;28;45680;-79
2022/03/10 09:57:39;;;;;;;;;32.00;30.50;;;;;11.22;60.35;101479.19;5030151;28;45611;-78
2022/03/10 10:00:05;;;;;;;;;27.00;25.00;;;;;11.33;59.68;101484.09;5031102;28;45513;-79
2022/03/10 10:02:31;;;;;;;;;25.25;24.50;;;;;11.37;59.76;101470.22;5030590;28;45382;-79
2022/03/10 10:04:56;;;;;;;;;23.00;19.75;;;;;11.54;59.43;101483.22;5030504;28;46116;-79
2022/03/10 10:07:27;;;;;;;;;25.25;20.50;;;;;11.48;59.03;101451.38;5030225;28;45410;-80
2022/03/10 10:09:56;;;;;;;;;23.00;21.00;;;;;11.60;59.13;101441.34;5030740;28;45504;-79
2022/03/10 10:12:27;;;;;;;;;25.00;22.75;;;;;11.86;58.63;101467.03;5029788;28;45596;-79
2022/03/10 10:14:53;;;;;;;;;22.75;21.75;;;;;12.00;58.68;101472.88;5030630;28;46045;-79
2022/03/10 10:17:30;;;;;;;;;22.75;20.75;;;;;12.08;58.14;101470.56;5030140;28;45533;-79
2022/03/10 10:19:57;;;;;;;;;22.25;21.00;;;;;12.11;58.08;101452.22;5030680;28;45706;-79
2022/03/10 10:22:24;;;;;;;;;23.75;22.25;;;;;12.28;57.76;101466.09;5030006;28;45653;-79
2022/03/10 10:24:52;;;;;;;;;24.00;22.50;;;;;12.37;57.88;101462.06;5030051;28;45406;-79
2022/03/10 10:27:19;;;;;;;;;22.00;20.25;;;;;12.45;57.66;101469.38;5029487;28;45406;-79
2022/03/10 10:30:06;;;;;;;;;19.75;19.00;;;;;12.53;57.56;101453.00;5030547;28;45422;-79
2022/03/10 10:32:31;;;;;;;;;20.75;20.75;;;;;12.63;57.81;101455.16;5029918;28;45524;-79
2022/03/10 10:35:08;;;;;;;;;22.33;19.00;;;;;12.72;57.70;101449.31;5028782;28;47125;-79
2022/03/10 10:37:39;;;;;;;;;24.00;20.25;;;;;12.87;56.96;101443.72;5030062;28;45434;-79
2022/03/10 10:40:06;;;;;;;;;22.75;20.25;;;;;12.87;56.85;101419.97;5030251;28;45481;-79
2022/03/10 10:42:34;;;;;;;;;21.00;21.00;;;;;13.08;56.88;101422.47;5029587;28;45597;-79
2022/03/10 10:45:01;;;;;;;;;21.75;20.00;;;;;13.17;56.75;101430.72;5030220;28;45471;-79
2022/03/10 10:47:29;;;;;;;;;20.75;17.25;;;;;13.24;56.59;101414.25;5029988;28;45477;-79
2022/03/10 10:49:57;;;;;;;;;21.75;20.25;;;;;13.31;56.23;101404.81;5030088;28;45430;-79
2022/03/10 10:52:24;;;;;;;;;21.50;20.25;;;;;13.50;56.16;101419.56;5029921;28;45588;-79
2022/03/10 10:55:03;;;;;;;;;17.00;17.00;;;;;13.54;55.95;101398.53;5029849;28;46028;-79
2022/03/10 10:57:34;;;;;;;;;18.50;17.00;;;;;13.71;56.13;101420.25;5029311;28;45897;-79
2022/03/10 11:00:11;;;;;;;;;17.75;15.75;;;;;13.76;55.95;101409.84;5030820;28;45613;-79
2022/03/10 11:02:41;;;;;;;;;19.75;17.75;;;;;13.86;55.68;101412.81;5029850;28;45466;-79
2022/03/10 11:05:08;;;;;;;;;17.00;16.50;;;;;13.81;55.10;101382.72;5029724;28;45829;-79
2022/03/10 11:07:35;;;;;;;;;15.00;14.25;;;;;13.87;55.31;101371.44;5030149;28;45399;-78
2022/03/10 11:10:03;;;;;;;;;20.50;17.25;;;;;14.12;55.19;101394.22;5032312;28;45459;-79
2022/03/10 11:12:28;;;;;;;;;20.75;19.50;;;;;14.02;54.97;101353.41;5028978;28;45434;-79
2022/03/10 11:14:54;;;;;;;;;16.75;15.50;;;;;14.04;54.93;101348.16;5029875;28;45905;-79
2022/03/10 11:17:19;;;;;;;;;20.75;17.25;;;;;14.26;54.90;101365.56;5029130;28;45402;-79